createdAt,value
2018-03-26T17:00:38.469Z,7.20
2018-03-26T17:03:06.681Z,7.30
2018-03-26T17:05:34.931Z,7.40
2018-03-26T17:08:03.212Z,7.30
2018-03-26T17:10:32.093Z,7.30
2018-03-26T17:13:00.735Z,7.30
2018-03-26T17:15:29.954Z,7.20
2018-03-26T17:17:59.339Z,7.20
2018-03-26T17:20:27.549Z,7.10
2018-03-26T17:22:55.893Z,7.10
2018-03-26T17:25:24.263Z,7.00
2018-03-26T17:27:52.497Z,6.90
2018-03-26T17:30:20.713Z,6.80
2018-03-26T17:32:48.953Z,6.70
2018-03-26T17:35:17.189Z,6.50
2018-03-26T17:37:46.211Z,6.40
2018-03-26T17:40:14.429Z,6.40
2018-03-26T17:42:42.665Z,6.20
2018-03-26T17:45:10.908Z,6.10
2018-03-26T17:47:39.897Z,5.70
2018-03-26T17:50:08.110Z,5.70
2018-03-26T17:52:36.346Z,5.50
2018-03-26T17:55:04.721Z,5.30
2018-03-26T17:57:32.966Z,5.10
2018-03-26T18:00:01.262Z,4.90
2018-03-26T18:02:29.476Z,4.80
2018-03-26T18:04:57.722Z,4.60
2018-03-26T18:07:26.000Z,4.40
2018-03-26T18:09:55.303Z,4.30
2018-03-26T18:12:23.481Z,4.20
2018-03-26T18:14:52.516Z,4.20
2018-03-26T18:17:20.770Z,4.20
2018-03-26T18:19:49.000Z,4.10
2018-03-26T18:22:17.271Z,4.20
2018-03-26T18:24:45.480Z,4.30
2018-03-26T18:27:13.780Z,4.40
2018-03-26T18:29:42.786Z,4.40
2018-03-26T18:32:11.085Z,4.40
2018-03-26T18:34:39.402Z,4.40
2018-03-26T18:37:08.396Z,4.50
2018-03-26T18:39:36.671Z,4.40
2018-03-26T18:42:04.911Z,4.40
2018-03-26T18:44:33.159Z,4.30
2018-03-26T18:47:01.393Z,4.30
2018-03-26T18:49:29.621Z,4.30
2018-03-26T18:51:57.886Z,4.40
2018-03-26T18:54:26.165Z,4.30
2018-03-26T18:56:54.670Z,4.40
2018-03-26T18:59:24.350Z,4.40
2018-03-26T19:01:52.565Z,4.40
2018-03-26T19:04:20.805Z,4.50
2018-03-26T19:06:49.662Z,4.50
2018-03-26T19:09:17.853Z,4.60
2018-03-26T19:11:46.969Z,4.60
2018-03-26T19:14:15.231Z,4.60
2018-03-26T19:16:43.474Z,4.60
2018-03-26T19:19:11.696Z,4.70
2018-03-26T19:21:40.701Z,4.80
2018-03-26T19:24:08.904Z,4.80
2018-03-26T19:26:37.149Z,4.90
2018-03-26T19:29:05.539Z,4.80
2018-03-26T19:31:34.491Z,4.70
2018-03-26T19:34:03.344Z,4.70
2018-03-26T19:36:31.563Z,4.60
2018-03-26T19:39:00.566Z,4.40
2018-03-26T19:41:30.377Z,4.30
2018-03-26T19:44:00.382Z,4.40
2018-03-26T19:46:28.608Z,4.40
2018-03-26T19:48:56.866Z,4.40
2018-03-26T19:51:25.127Z,4.50
2018-03-26T19:53:54.089Z,4.50
2018-03-26T19:56:22.332Z,4.50
2018-03-26T19:58:50.588Z,4.50
2018-03-26T20:01:18.918Z,4.50
2018-03-26T20:03:47.105Z,4.60
2018-03-26T20:06:16.127Z,4.60
2018-03-26T20:08:45.109Z,4.70
2018-03-26T20:11:14.082Z,4.80
2018-03-26T20:13:43.275Z,4.80
2018-03-26T20:16:11.460Z,4.80
2018-03-26T20:18:40.448Z,5.00
2018-03-26T20:21:09.462Z,5.00
2018-03-26T20:23:37.709Z,5.00
2018-03-26T20:26:06.721Z,5.10
2018-03-26T20:28:35.729Z,5.10
2018-03-26T20:31:03.972Z,5.10
2018-03-26T20:33:32.202Z,5.10
2018-03-26T20:36:00.444Z,5.10
2018-03-26T20:38:29.582Z,5.20
2018-03-26T20:40:57.731Z,5.20
2018-03-26T20:43:25.981Z,5.20
2018-03-26T20:45:55.060Z,5.30
2018-03-26T20:48:23.261Z,5.30
2018-03-26T20:50:52.417Z,5.40
2018-03-26T20:53:20.749Z,5.40
2018-03-26T20:55:49.051Z,5.50
2018-03-26T20:58:17.296Z,5.50
2018-03-26T21:00:45.551Z,5.50
2018-03-26T21:03:13.834Z,5.50
2018-03-26T21:05:42.809Z,5.60
2018-03-26T21:08:11.833Z,5.60
2018-03-26T21:10:40.112Z,5.60
2018-03-26T21:13:09.225Z,5.60
2018-03-26T21:15:37.477Z,5.60
2018-03-26T21:18:06.528Z,5.80
2018-03-26T21:20:34.696Z,5.70
2018-03-26T21:23:03.033Z,5.80
2018-03-26T21:25:31.271Z,5.90
2018-03-26T21:28:00.997Z,5.80
2018-03-26T21:30:29.323Z,5.80
2018-03-26T21:32:57.582Z,5.80
2018-03-26T21:35:25.781Z,5.70
2018-03-26T21:37:53.993Z,5.70
2018-03-26T21:40:23.007Z,5.60
2018-03-26T21:42:51.225Z,5.60
2018-03-26T21:45:19.440Z,5.60
2018-03-26T21:47:47.748Z,5.60
2018-03-26T21:50:15.970Z,5.50
2018-03-26T21:52:45.791Z,5.50
2018-03-26T21:55:14.871Z,5.50
2018-03-26T21:57:43.110Z,5.40
2018-03-26T22:00:11.373Z,5.40
2018-03-26T22:02:39.617Z,5.30
2018-03-26T22:05:09.361Z,5.30
2018-03-26T22:07:37.602Z,5.30
2018-03-26T22:10:05.819Z,5.30
2018-03-26T22:12:34.973Z,5.30
2018-03-26T22:15:03.153Z,5.20
2018-03-26T22:17:32.242Z,5.20
2018-03-26T22:20:00.459Z,5.10
2018-03-26T22:22:28.689Z,5.10
2018-03-26T22:24:57.314Z,5.10
2018-03-26T22:27:25.593Z,5.20
2018-03-26T22:29:53.841Z,5.10
2018-03-26T22:32:22.823Z,5.10
2018-03-26T22:34:52.537Z,5.10
2018-03-26T22:37:20.777Z,5.00
2018-03-26T22:39:49.021Z,5.00
2018-03-26T22:42:17.364Z,5.00
2018-03-26T22:44:45.682Z,4.90
